Time,TemperatureF,DewpointF,PressureIn,WindDirection,WindDirectionDegrees,WindSpeedMPH,WindSpeedGustMPH,Humidity,HourlyPrecipIn,Conditions,Clouds,dailyrainin,SoftwareType,DateUTC
2013-04-30 00:02:00,72.0,64.0,-100.00,South,175,19.0,25.0,73,0.00,,,-99.99,,2013-04-30 05:02:00,
2013-04-30 00:12:00,72.0,64.0,-100.00,South,175,19.0,25.0,73,0.00,,,-99.99,,2013-04-30 05:12:00,
2013-04-30 00:22:00,73.0,63.0,-100.00,South,185,18.0,25.0,72,0.00,,,-99.99,,2013-04-30 05:22:00,
2013-04-30 00:31:00,74.0,63.0,-100.00,South,170,14.0,25.0,70,0.00,,,-99.99,,2013-04-30 05:31:00,
2013-04-30 00:42:00,74.0,63.0,-100.00,South,170,14.0,25.0,70,0.00,,,-99.99,,2013-04-30 05:42:00,
2013-04-30 00:51:00,73.0,63.0,-100.00,South,175,13.0,21.0,70,0.00,,,-99.99,,2013-04-30 05:51:00,
2013-04-30 01:01:00,73.0,63.0,-100.00,South,175,13.0,21.0,70,0.00,,,-99.99,,2013-04-30 06:01:00,
2013-04-30 01:11:00,73.0,63.0,-100.00,South,175,13.0,21.0,70,0.00,,,-99.99,,2013-04-30 06:11:00,
2013-04-30 01:21:00,73.0,63.0,-100.00,South,185,16.0,19.0,71,0.00,,,-99.99,,2013-04-30 06:21:00,
2013-04-30 01:31:00,73.0,63.0,-100.00,South,185,16.0,21.0,71,0.00,,,-99.99,,2013-04-30 06:31:00,
2013-04-30 01:41:00,73.0,63.0,-100.00,South,185,16.0,21.0,71,0.00,,,-99.99,,2013-04-30 06:41:00,
2013-04-30 01:52:00,73.0,63.0,-100.00,South,185,16.0,21.0,70,0.00,,,-99.99,,2013-04-30 06:52:00,
2013-04-30 02:01:00,73.0,63.0,-100.00,South,185,16.0,21.0,70,0.00,,,-99.99,,2013-04-30 07:01:00,
2013-04-30 02:11:00,70.0,64.0,-100.00,South,190,21.0,28.0,81,2.62,,,-99.99,,2013-04-30 07:11:00,
2013-04-30 02:21:00,69.0,64.0,-100.00,South,180,13.0,22.0,83,0.00,,,-99.99,,2013-04-30 07:21:00,
2013-04-30 02:31:00,71.0,63.0,-100.00,South,185,15.0,22.0,76,0.00,,,-99.99,,2013-04-30 07:31:00,
2013-04-30 02:41:00,71.0,63.0,-100.00,South,185,15.0,22.0,76,0.00,,,-99.99,,2013-04-30 07:41:00,
2013-04-30 02:52:00,71.0,62.0,-100.00,SSW,195,17.0,22.0,74,0.00,,,-99.99,,2013-04-30 07:52:00,
2013-04-30 03:02:00,71.0,62.0,-100.00,SSW,195,17.0,22.0,74,0.00,,,-99.99,,2013-04-30 08:02:00,
2013-04-30 03:11:00,71.0,62.0,-100.00,South,190,17.0,24.0,73,0.00,,,-99.99,,2013-04-30 08:11:00,
2013-04-30 03:21:00,71.0,61.0,-100.00,South,190,19.0,26.0,71,0.00,,,-99.99,,2013-04-30 08:21:00,
2013-04-30 03:32:00,71.0,60.0,-100.00,SSW,195,18.0,26.0,69,0.00,,,-99.99,,2013-04-30 08:32:00,
2013-04-30 03:42:00,71.0,60.0,-100.00,SSW,195,18.0,26.0,69,0.00,,,-99.99,,2013-04-30 08:42:00,
2013-04-30 03:52:00,71.0,60.0,-100.00,South,190,20.0,26.0,67,0.00,,,-99.99,,2013-04-30 08:52:00,
2013-04-30 04:01:00,71.0,60.0,-100.00,South,190,20.0,26.0,67,0.00,,,-99.99,,2013-04-30 09:01:00,
2013-04-30 04:11:00,71.0,59.0,-100.00,SSW,195,21.0,27.0,67,0.00,,,-99.99,,2013-04-30 09:11:00,
2013-04-30 04:22:00,71.0,59.0,-100.00,SSW,195,22.0,29.0,65,0.00,,,-99.99,,2013-04-30 09:22:00,
2013-04-30 04:33:00,71.0,58.0,-100.00,SSW,195,20.0,29.0,64,0.00,,,-99.99,,2013-04-30 09:33:00,
2013-04-30 04:43:00,71.0,58.0,-100.00,SSW,195,20.0,29.0,64,0.00,,,-99.99,,2013-04-30 09:43:00,
2013-04-30 04:52:00,71.0,57.0,-100.00,SSW,195,19.0,30.0,61,0.00,,,-99.99,,2013-04-30 09:52:00,
2013-04-30 05:03:00,71.0,57.0,-100.00,SSW,195,19.0,30.0,61,0.00,,,-99.99,,2013-04-30 10:03:00,
2013-04-30 05:11:00,71.0,57.0,-100.00,SSW,195,19.0,30.0,61,0.00,,,-99.99,,2013-04-30 10:11:00,
2013-04-30 05:22:00,71.0,57.0,-100.00,South,190,20.0,31.0,61,0.00,,,-99.99,,2013-04-30 10:22:00,
2013-04-30 05:32:00,70.0,56.0,-100.00,SSW,195,18.0,27.0,60,0.00,,,-99.99,,2013-04-30 10:32:00,
2013-04-30 05:41:00,70.0,56.0,-100.00,SSW,195,18.0,27.0,60,0.00,,,-99.99,,2013-04-30 10:41:00,
2013-04-30 05:52:00,70.0,56.0,-100.00,SSW,195,20.0,27.0,59,0.00,,,-99.99,,2013-04-30 10:52:00,
2013-04-30 06:02:00,70.0,56.0,-100.00,SSW,195,20.0,27.0,59,0.00,,,-99.99,,2013-04-30 11:02:00,
2013-04-30 06:11:00,70.0,56.0,-100.00,SSW,195,20.0,27.0,59,0.00,,,-99.99,,2013-04-30 11:11:00,
2013-04-30 06:21:00,70.0,55.0,-100.00,South,185,19.0,29.0,59,0.00,,,-99.99,,2013-04-30 11:21:00,
2013-04-30 06:31:00,70.0,55.0,-100.00,SSW,200,21.0,27.0,58,0.00,,,-99.99,,2013-04-30 11:31:00,
2013-04-30 06:42:00,70.0,55.0,-100.00,SSW,200,21.0,27.0,58,0.00,,,-99.99,,2013-04-30 11:42:00,
2013-04-30 06:51:00,70.0,54.0,-100.00,SSW,195,21.0,28.0,57,0.00,,,-99.99,,2013-04-30 11:51:00,
2013-04-30 07:01:00,70.0,54.0,-100.00,SSW,195,21.0,28.0,57,0.00,,,-99.99,,2013-04-30 12:01:00,
2013-04-30 07:11:00,70.0,53.0,-100.00,South,185,19.0,29.0,55,0.00,,,-99.99,,2013-04-30 12:11:00,
2013-04-30 07:21:00,70.0,53.0,-100.00,South,185,19.0,29.0,55,0.00,,,-99.99,,2013-04-30 12:21:00,
2013-04-30 07:31:00,71.0,53.0,-100.00,SSW,200,20.0,28.0,53,0.00,,,-99.99,,2013-04-30 12:31:00,
2013-04-30 07:41:00,71.0,53.0,-100.00,SSW,200,20.0,28.0,53,0.00,,,-99.99,,2013-04-30 12:41:00,
2013-04-30 07:51:00,72.0,53.0,-100.00,SSW,195,21.0,26.0,51,0.00,,,-99.99,,2013-04-30 12:51:00,
2013-04-30 08:01:00,72.0,53.0,-100.00,SSW,195,21.0,26.0,51,0.00,,,-99.99,,2013-04-30 13:01:00,
2013-04-30 08:11:00,72.0,52.0,-100.00,SSW,205,23.0,34.0,50,0.00,,,-99.99,,2013-04-30 13:11:00,
2013-04-30 08:21:00,72.0,52.0,-100.00,SW,215,21.0,30.0,49,0.00,,,-99.99,,2013-04-30 13:21:00,
2013-04-30 08:31:00,73.0,52.0,-100.00,SW,220,24.0,34.0,47,0.00,,,-99.99,,2013-04-30 13:31:00,
2013-04-30 08:41:00,73.0,52.0,-100.00,SW,220,24.0,34.0,47,0.00,,,-99.99,,2013-04-30 13:41:00,
2013-04-30 08:51:00,74.0,52.0,-100.00,SW,220,24.0,35.0,46,0.00,,,-99.99,,2013-04-30 13:51:00,
2013-04-30 09:02:00,74.0,52.0,-100.00,SW,220,24.0,35.0,46,0.00,,,-99.99,,2013-04-30 14:02:00,
2013-04-30 09:11:00,73.0,51.0,-100.00,SW,215,19.0,30.0,46,0.00,,,-99.99,,2013-04-30 14:11:00,
2013-04-30 09:21:00,73.0,51.0,-100.00,SW,220,17.0,24.0,46,0.00,,,-99.99,,2013-04-30 14:21:00,
2013-04-30 09:31:00,75.0,52.0,-100.00,SW,220,18.0,22.0,44,0.00,,,-99.99,,2013-04-30 14:31:00,
2013-04-30 09:41:00,75.0,52.0,-100.00,SW,220,18.0,22.0,44,0.00,,,-99.99,,2013-04-30 14:41:00,
2013-04-30 09:52:00,75.0,51.0,-100.00,SW,220,26.0,34.0,42,0.00,,,-99.99,,2013-04-30 14:52:00,
2013-04-30 10:01:00,75.0,51.0,-100.00,SW,220,26.0,34.0,42,0.00,,,-99.99,,2013-04-30 15:01:00,
2013-04-30 10:11:00,75.0,51.0,-100.00,SSW,210,28.0,38.0,42,0.00,,,-99.99,,2013-04-30 15:11:00,
2013-04-30 10:21:00,76.0,52.0,-100.00,SW,220,25.0,35.0,42,0.00,,,-99.99,,2013-04-30 15:21:00,
2013-04-30 10:32:00,76.0,53.0,-100.00,SW,235,25.0,34.0,44,0.00,,,-99.99,,2013-04-30 15:32:00,
2013-04-30 10:42:00,76.0,53.0,-100.00,SW,235,25.0,34.0,44,0.00,,,-99.99,,2013-04-30 15:42:00,
2013-04-30 10:52:00,78.0,54.0,-100.00,SW,230,22.0,34.0,44,0.00,,,-99.99,,2013-04-30 15:52:00,
2013-04-30 11:02:00,78.0,54.0,-100.00,SW,230,22.0,34.0,44,0.00,,,-99.99,,2013-04-30 16:02:00,
2013-04-30 11:12:00,78.0,55.0,-100.00,SSW,210,19.0,32.0,44,0.00,,,-99.99,,2013-04-30 16:12:00,
2013-04-30 11:22:00,78.0,55.0,-100.00,SSW,210,19.0,32.0,44,0.00,,,-99.99,,2013-04-30 16:22:00,
2013-04-30 11:33:00,80.0,57.0,-100.00,SW,215,22.0,31.0,44,0.00,,,-99.99,,2013-04-30 16:33:00,
2013-04-30 11:42:00,80.0,57.0,-100.00,SW,215,22.0,31.0,44,0.00,,,-99.99,,2013-04-30 16:42:00,
2013-04-30 11:52:00,80.0,56.0,-100.00,WSW,240,25.0,32.0,44,0.00,,,-99.99,,2013-04-30 16:52:00,
2013-04-30 12:02:00,80.0,56.0,-100.00,WSW,240,25.0,32.0,44,0.00,,,-99.99,,2013-04-30 17:02:00,
2013-04-30 12:12:00,81.0,57.0,-100.00,SW,225,22.0,30.0,44,0.00,,,-99.99,,2013-04-30 17:12:00,
2013-04-30 12:22:00,82.0,58.0,-100.00,SW,235,21.0,32.0,44,0.00,,,-99.99,,2013-04-30 17:22:00,
2013-04-30 12:32:00,81.0,58.0,-100.00,SSW,210,23.0,29.0,44,0.00,,,-99.99,,2013-04-30 17:32:00,
2013-04-30 12:42:00,81.0,58.0,-100.00,SSW,210,23.0,29.0,44,0.00,,,-99.99,,2013-04-30 17:42:00,
2013-04-30 12:52:00,82.0,58.0,-100.00,WSW,245,19.0,27.0,44,0.00,,,-99.99,,2013-04-30 17:52:00,
2013-04-30 13:01:00,82.0,58.0,-100.00,WSW,245,19.0,27.0,44,0.00,,,-99.99,,2013-04-30 18:01:00,
2013-04-30 13:11:00,82.0,58.0,-100.00,WSW,240,21.0,27.0,44,0.00,,,-99.99,,2013-04-30 18:11:00,
2013-04-30 13:22:00,82.0,58.0,-100.00,WSW,240,21.0,27.0,44,0.00,,,-99.99,,2013-04-30 18:22:00,
2013-04-30 13:32:00,83.0,59.0,-100.00,SW,225,16.0,27.0,44,0.00,,,-99.99,,2013-04-30 18:32:00,
2013-04-30 13:41:00,83.0,59.0,-100.00,SW,225,16.0,27.0,44,0.00,,,-99.99,,2013-04-30 18:41:00,
2013-04-30 13:51:00,84.0,59.0,-100.00,SW,235,21.0,29.0,42,0.00,,,-99.99,,2013-04-30 18:51:00,
2013-04-30 14:01:00,84.0,59.0,-100.00,SW,235,21.0,29.0,42,0.00,,,-99.99,,2013-04-30 19:01:00,
2013-04-30 14:11:00,84.0,59.0,-100.00,WSW,245,20.0,29.0,42,0.00,,,-99.99,,2013-04-30 19:11:00,
2013-04-30 14:21:00,84.0,58.0,-100.00,WSW,240,18.0,26.0,42,0.00,,,-99.99,,2013-04-30 19:21:00,
2013-04-30 14:32:00,84.0,59.0,-100.00,SW,220,17.0,24.0,42,0.00,,,-99.99,,2013-04-30 19:32:00,
2013-04-30 14:42:00,84.0,59.0,-100.00,SW,220,17.0,24.0,42,0.00,,,-99.99,,2013-04-30 19:42:00,
2013-04-30 14:52:00,84.0,59.0,-100.00,SW,225,21.0,26.0,41,0.00,,,-99.99,,2013-04-30 19:52:00,
2013-04-30 15:02:00,84.0,59.0,-100.00,SW,225,21.0,26.0,41,0.00,,,-99.99,,2013-04-30 20:02:00,
2013-04-30 15:11:00,83.0,58.0,-100.00,SW,215,17.0,27.0,42,0.00,,,-99.99,,2013-04-30 20:11:00,
2013-04-30 15:21:00,84.0,59.0,-100.00,SW,235,15.0,20.0,42,0.00,,,-99.99,,2013-04-30 20:21:00,
2013-04-30 15:32:00,84.0,59.0,-100.00,SW,225,12.0,22.0,43,0.00,,,-99.99,,2013-04-30 20:32:00,
2013-04-30 15:42:00,84.0,59.0,-100.00,SW,225,12.0,22.0,43,0.00,,,-99.99,,2013-04-30 20:42:00,
2013-04-30 15:52:00,81.0,56.0,-100.00,NW,320,11.0,17.0,42,0.00,,,-99.99,,2013-04-30 20:52:00,
2013-04-30 16:01:00,81.0,56.0,-100.00,NW,320,11.0,17.0,42,0.00,,,-99.99,,2013-04-30 21:01:00,
2013-04-30 16:11:00,81.0,56.0,-100.00,NW,320,11.0,17.0,42,0.00,,,-99.99,,2013-04-30 21:11:00,
2013-04-30 16:22:00,81.0,56.0,-100.00,NNW,330,12.0,18.0,42,0.00,,,-99.99,,2013-04-30 21:22:00,
2013-04-30 16:32:00,81.0,56.0,-100.00,NW,320,6.0,13.0,42,0.00,,,-99.99,,2013-04-30 21:32:00,
2013-04-30 16:42:00,81.0,56.0,-100.00,NW,320,6.0,13.0,42,0.00,,,-99.99,,2013-04-30 21:42:00,
2013-04-30 16:52:00,82.0,56.0,-100.00,North,0,7.0,12.0,41,0.00,,,-99.99,,2013-04-30 21:52:00,
2013-04-30 17:02:00,82.0,56.0,-100.00,North,0,7.0,12.0,41,0.00,,,-99.99,,2013-04-30 22:02:00,
2013-04-30 17:12:00,82.0,56.0,-100.00,North,355,10.0,14.0,41,0.00,,,-99.99,,2013-04-30 22:12:00,
2013-04-30 17:22:00,81.0,55.0,-100.00,NNW,335,7.0,11.0,41,0.00,,,-99.99,,2013-04-30 22:22:00,
2013-04-30 17:32:00,81.0,55.0,-100.00,North,355,4.0,11.0,41,0.00,,,-99.99,,2013-04-30 22:32:00,
2013-04-30 17:41:00,81.0,55.0,-100.00,North,355,4.0,11.0,41,0.00,,,-99.99,,2013-04-30 22:41:00,
2013-04-30 17:52:00,81.0,55.0,-100.00,NNW,340,6.0,9.0,40,0.00,,,-99.99,,2013-04-30 22:52:00,
2013-04-30 18:02:00,81.0,55.0,-100.00,NNW,340,6.0,9.0,40,0.00,,,-99.99,,2013-04-30 23:02:00,
2013-04-30 18:12:00,81.0,55.0,-100.00,North,10,5.0,9.0,40,0.00,,,-99.99,,2013-04-30 23:12:00,
2013-04-30 18:21:00,81.0,55.0,-100.00,North,5,6.0,11.0,40,0.00,,,-99.99,,2013-04-30 23:21:00,
2013-04-30 18:32:00,80.0,55.0,-100.00,NNE,20,4.0,9.0,42,0.00,,,-99.99,,2013-04-30 23:32:00,
2013-04-30 18:42:00,80.0,55.0,-100.00,NNE,20,4.0,9.0,42,0.00,,,-99.99,,2013-04-30 23:42:00,
2013-04-30 18:52:00,79.0,54.0,-100.00,North,5,4.0,9.0,42,0.00,,,-99.99,,2013-04-30 23:52:00,
2013-04-30 19:02:00,79.0,54.0,-100.00,North,5,4.0,9.0,42,0.00,,,-99.99,,2013-05-01 00:02:00,
2013-04-30 19:11:00,79.0,54.0,-100.00,North,10,4.0,9.0,42,0.00,,,-99.99,,2013-05-01 00:11:00,
2013-04-30 19:21:00,79.0,54.0,-100.00,North,0,6.0,9.0,42,0.00,,,-99.99,,2013-05-01 00:21:00,
2013-04-30 19:32:00,76.0,53.0,-100.00,NNE,20,6.0,11.0,44,0.00,,,-99.99,,2013-05-01 00:32:00,
2013-04-30 19:42:00,76.0,53.0,-100.00,NNE,20,6.0,11.0,44,0.00,,,-99.99,,2013-05-01 00:42:00,
2013-04-30 19:51:00,75.0,53.0,-100.00,North,350,5.0,7.0,45,0.00,,,-99.99,,2013-05-01 00:51:00,
2013-04-30 20:01:00,75.0,53.0,-100.00,North,350,5.0,7.0,45,0.00,,,-99.99,,2013-05-01 01:01:00,
2013-04-30 20:11:00,75.0,52.0,-100.00,NNE,20,9.0,12.0,45,0.00,,,-99.99,,2013-05-01 01:11:00,
2013-04-30 20:21:00,74.0,52.0,-100.00,NNE,30,8.0,14.0,45,0.00,,,-99.99,,2013-05-01 01:21:00,
2013-04-30 20:31:00,73.0,53.0,-100.00,NNW,335,7.0,9.0,48,0.00,,,-99.99,,2013-05-01 01:31:00,
2013-04-30 20:41:00,73.0,53.0,-100.00,NNW,335,7.0,9.0,48,0.00,,,-99.99,,2013-05-01 01:41:00,
2013-04-30 20:52:00,73.0,52.0,-100.00,North,0,8.0,16.0,48,0.00,,,-99.99,,2013-05-01 01:52:00,
2013-04-30 21:02:00,73.0,52.0,-100.00,North,0,8.0,16.0,48,0.00,,,-99.99,,2013-05-01 02:02:00,
2013-04-30 21:11:00,72.0,52.0,-100.00,NNW,335,10.0,13.0,48,0.00,,,-99.99,,2013-05-01 02:11:00,
2013-04-30 21:21:00,71.0,51.0,-100.00,North,0,9.0,17.0,49,0.00,,,-99.99,,2013-05-01 02:21:00,
2013-04-30 21:32:00,69.0,50.0,-100.00,North,355,13.0,22.0,49,0.00,,,-99.99,,2013-05-01 02:32:00,
2013-04-30 21:42:00,69.0,50.0,-100.00,North,355,13.0,22.0,49,0.00,,,-99.99,,2013-05-01 02:42:00,
2013-04-30 21:51:00,69.0,49.0,-100.00,North,0,16.0,29.0,49,0.00,,,-99.99,,2013-05-01 02:51:00,
2013-04-30 22:01:00,69.0,49.0,-100.00,North,0,16.0,29.0,49,0.00,,,-99.99,,2013-05-01 03:01:00,
2013-04-30 22:11:00,68.0,49.0,-100.00,North,0,16.0,24.0,49,0.00,,,-99.99,,2013-05-01 03:11:00,
2013-04-30 22:21:00,68.0,48.0,-100.00,North,355,9.0,21.0,48,0.00,,,-99.99,,2013-05-01 03:21:00,
2013-04-30 22:33:00,65.0,47.0,-100.00,North,350,13.0,19.0,52,0.00,,,-99.99,,2013-05-01 03:33:00,
2013-04-30 22:42:00,65.0,47.0,-100.00,North,350,13.0,19.0,52,0.00,,,-99.99,,2013-05-01 03:42:00,
2013-04-30 22:52:00,63.0,46.0,-100.00,North,0,12.0,21.0,53,0.00,,,-99.99,,2013-05-01 03:52:00,
2013-04-30 23:03:00,63.0,46.0,-100.00,North,0,12.0,21.0,53,0.00,,,-99.99,,2013-05-01 04:03:00,
2013-04-30 23:12:00,62.0,45.0,-100.00,NNE,15,10.0,20.0,54,0.00,,,-99.99,,2013-05-01 04:12:00,
2013-04-30 23:22:00,61.0,46.0,-100.00,NNE,25,9.0,17.0,56,0.00,,,-99.99,,2013-05-01 04:22:00,
2013-04-30 23:32:00,61.0,46.0,-100.00,North,0,9.0,17.0,59,0.00,,,-99.99,,2013-05-01 04:32:00,
2013-04-30 23:42:00,61.0,46.0,-100.00,North,0,9.0,17.0,59,0.00,,,-99.99,,2013-05-01 04:42:00,
2013-04-30 23:52:00,60.0,47.0,-100.00,NNE,30,9.0,18.0,61,0.00,,,-99.99,,2013-05-01 04:52:00,